sensor_id;sensor_type;location;lat;lon;timestamp;P1;durP1;ratioP1;P2;durP2;ratioP2
7707;SDS011;3896;48.758;8.888;2024-03-22T00:01:52;5.70;;;4.77;;
7707;SDS011;3896;48.758;8.888;2024-03-22T00:04:17;5.90;;;5.13;;
7707;SDS011;3896;48.758;8.888;2024-03-22T00:06:44;8.27;;;5.53;;
7707;SDS011;3896;48.758;8.888;2024-03-22T00:09:11;7.83;;;5.60;;
7707;SDS011;3896;48.758;8.888;2024-03-22T00:11:38;8.00;;;6.07;;
7707;SDS011;3896;48.758;8.888;2024-03-22T00:14:04;7.47;;;5.63;;
7707;SDS011;3896;48.758;8.888;2024-03-22T00:16:30;7.73;;;5.13;;
7707;SDS011;3896;48.758;8.888;2024-03-22T00:18:55;7.70;;;6.23;;
7707;SDS011;3896;48.758;8.888;2024-03-22T00:21:21;7.17;;;5.07;;
7707;SDS011;3896;48.758;8.888;2024-03-22T00:23:47;6.80;;;5.67;;
7707;SDS011;3896;48.758;8.888;2024-03-22T00:26:13;9.50;;;5.77;;
7707;SDS011;3896;48.758;8.888;2024-03-22T00:28:38;7.53;;;5.87;;
7707;SDS011;3896;48.758;8.888;2024-03-22T00:31:04;8.43;;;6.23;;
7707;SDS011;3896;48.758;8.888;2024-03-22T00:33:29;7.13;;;5.20;;
7707;SDS011;3896;48.758;8.888;2024-03-22T00:35:55;8.07;;;6.23;;
7707;SDS011;3896;48.758;8.888;2024-03-22T00:38:20;7.50;;;5.37;;
7707;SDS011;3896;48.758;8.888;2024-03-22T00:40:46;7.80;;;5.70;;
7707;SDS011;3896;48.758;8.888;2024-03-22T00:43:12;6.83;;;5.00;;
7707;SDS011;3896;48.758;8.888;2024-03-22T00:45:37;7.47;;;5.83;;
7707;SDS011;3896;48.758;8.888;2024-03-22T00:48:03;8.63;;;6.20;;
7707;SDS011;3896;48.758;8.888;2024-03-22T00:50:28;9.00;;;6.17;;
7707;SDS011;3896;48.758;8.888;2024-03-22T00:52:54;7.33;;;5.80;;
7707;SDS011;3896;48.758;8.888;2024-03-22T00:55:23;5.97;;;5.37;;
7707;SDS011;3896;48.758;8.888;2024-03-22T00:57:49;8.80;;;4.87;;
7707;SDS011;3896;48.758;8.888;2024-03-22T01:00:15;10.23;;;5.40;;
7707;SDS011;3896;48.758;8.888;2024-03-22T01:02:41;8.00;;;5.23;;
7707;SDS011;3896;48.758;8.888;2024-03-22T01:05:07;8.87;;;6.17;;
7707;SDS011;3896;48.758;8.888;2024-03-22T01:07:33;6.60;;;4.73;;
7707;SDS011;3896;48.758;8.888;2024-03-22T01:09:58;7.53;;;5.43;;
7707;SDS011;3896;48.758;8.888;2024-03-22T01:12:25;9.53;;;6.00;;
7707;SDS011;3896;48.758;8.888;2024-03-22T01:14:50;7.53;;;5.67;;
7707;SDS011;3896;48.758;8.888;2024-03-22T01:17:16;9.07;;;5.63;;
7707;SDS011;3896;48.758;8.888;2024-03-22T01:19:42;8.00;;;5.10;;
7707;SDS011;3896;48.758;8.888;2024-03-22T01:22:07;7.17;;;4.97;;
7707;SDS011;3896;48.758;8.888;2024-03-22T01:24:33;9.57;;;5.83;;
7707;SDS011;3896;48.758;8.888;2024-03-22T01:26:58;7.83;;;5.93;;
7707;SDS011;3896;48.758;8.888;2024-03-22T01:29:24;7.47;;;5.53;;
7707;SDS011;3896;48.758;8.888;2024-03-22T01:31:49;8.10;;;5.37;;
7707;SDS011;3896;48.758;8.888;2024-03-22T01:34:15;8.10;;;5.83;;
7707;SDS011;3896;48.758;8.888;2024-03-22T01:36:40;7.27;;;5.50;;
7707;SDS011;3896;48.758;8.888;2024-03-22T01:39:06;9.03;;;5.97;;
7707;SDS011;3896;48.758;8.888;2024-03-22T01:41:32;7.57;;;5.73;;
7707;SDS011;3896;48.758;8.888;2024-03-22T01:43:57;6.63;;;4.90;;
7707;SDS011;3896;48.758;8.888;2024-03-22T01:46:23;8.17;;;6.40;;
7707;SDS011;3896;48.758;8.888;2024-03-22T01:48:56;12.77;;;6.30;;
7707;SDS011;3896;48.758;8.888;2024-03-22T01:51:22;8.13;;;6.27;;
7707;SDS011;3896;48.758;8.888;2024-03-22T01:53:47;8.30;;;6.17;;
7707;SDS011;3896;48.758;8.888;2024-03-22T01:56:13;8.57;;;5.67;;
7707;SDS011;3896;48.758;8.888;2024-03-22T01:58:39;11.00;;;6.70;;
7707;SDS011;3896;48.758;8.888;2024-03-22T02:01:05;9.23;;;5.40;;
7707;SDS011;3896;48.758;8.888;2024-03-22T02:03:31;8.33;;;5.70;;
7707;SDS011;3896;48.758;8.888;2024-03-22T02:05:56;9.80;;;5.70;;
7707;SDS011;3896;48.758;8.888;2024-03-22T02:08:22;6.80;;;5.33;;
7707;SDS011;3896;48.758;8.888;2024-03-22T02:10:47;8.23;;;4.97;;
7707;SDS011;3896;48.758;8.888;2024-03-22T02:13:13;7.67;;;5.37;;
7707;SDS011;3896;48.758;8.888;2024-03-22T02:15:39;8.67;;;6.20;;
7707;SDS011;3896;48.758;8.888;2024-03-22T02:18:04;9.90;;;5.67;;
7707;SDS011;3896;48.758;8.888;2024-03-22T02:20:30;8.20;;;5.43;;
7707;SDS011;3896;48.758;8.888;2024-03-22T02:22:55;8.90;;;5.97;;
7707;SDS011;3896;48.758;8.888;2024-03-22T02:25:21;7.60;;;5.37;;
7707;SDS011;3896;48.758;8.888;2024-03-22T02:27:46;7.60;;;5.37;;
7707;SDS011;3896;48.758;8.888;2024-03-22T02:30:15;8.47;;;5.60;;
7707;SDS011;3896;48.758;8.888;2024-03-22T02:32:41;10.03;;;5.53;;
7707;SDS011;3896;48.758;8.888;2024-03-22T02:35:07;8.30;;;6.13;;
7707;SDS011;3896;48.758;8.888;2024-03-22T02:37:33;8.20;;;5.23;;
7707;SDS011;3896;48.758;8.888;2024-03-22T02:39:58;8.20;;;5.80;;
7707;SDS011;3896;48.758;8.888;2024-03-22T02:42:24;10.30;;;5.87;;
7707;SDS011;3896;48.758;8.888;2024-03-22T02:57:46;10.70;;;5.63;;
7707;SDS011;3896;48.758;8.888;2024-03-22T03:00:15;10.17;;;6.40;;
7707;SDS011;3896;48.758;8.888;2024-03-22T03:02:40;6.27;;;5.23;;
7707;SDS011;3896;48.758;8.888;2024-03-22T03:05:06;8.53;;;6.03;;
7707;SDS011;3896;48.758;8.888;2024-03-22T03:07:31;9.90;;;6.10;;
7707;SDS011;3896;48.758;8.888;2024-03-22T03:09:57;6.60;;;5.43;;
7707;SDS011;3896;48.758;8.888;2024-03-22T03:12:22;8.03;;;5.47;;
7707;SDS011;3896;48.758;8.888;2024-03-22T03:14:48;7.00;;;5.80;;
7707;SDS011;3896;48.758;8.888;2024-03-22T03:17:13;8.07;;;5.30;;
7707;SDS011;3896;48.758;8.888;2024-03-22T03:19:39;9.43;;;6.03;;
7707;SDS011;3896;48.758;8.888;2024-03-22T03:22:04;8.37;;;6.30;;
7707;SDS011;3896;48.758;8.888;2024-03-22T03:24:30;8.50;;;5.60;;
7707;SDS011;3896;48.758;8.888;2024-03-22T03:26:56;10.53;;;6.70;;
7707;SDS011;3896;48.758;8.888;2024-03-22T03:29:21;12.57;;;7.43;;
7707;SDS011;3896;48.758;8.888;2024-03-22T03:31:47;6.87;;;5.87;;
7707;SDS011;3896;48.758;8.888;2024-03-22T03:34:13;10.50;;;6.23;;
7707;SDS011;3896;48.758;8.888;2024-03-22T03:36:39;10.07;;;6.20;;
7707;SDS011;3896;48.758;8.888;2024-03-22T03:39:04;7.17;;;5.33;;
7707;SDS011;3896;48.758;8.888;2024-03-22T03:41:30;9.57;;;6.67;;
7707;SDS011;3896;48.758;8.888;2024-03-22T03:43:56;9.50;;;6.47;;
7707;SDS011;3896;48.758;8.888;2024-03-22T03:46:21;9.03;;;6.23;;
7707;SDS011;3896;48.758;8.888;2024-03-22T03:48:47;7.63;;;5.73;;
7707;SDS011;3896;48.758;8.888;2024-03-22T03:51:12;10.20;;;6.03;;
7707;SDS011;3896;48.758;8.888;2024-03-22T03:53:38;10.40;;;5.40;;
7707;SDS011;3896;48.758;8.888;2024-03-22T03:56:03;7.37;;;5.63;;
7707;SDS011;3896;48.758;8.888;2024-03-22T03:58:29;10.47;;;6.20;;
7707;SDS011;3896;48.758;8.888;2024-03-22T04:00:54;10.13;;;6.07;;
7707;SDS011;3896;48.758;8.888;2024-03-22T04:03:20;10.30;;;5.80;;
7707;SDS011;3896;48.758;8.888;2024-03-22T04:05:45;8.60;;;5.70;;
7707;SDS011;3896;48.758;8.888;2024-03-22T04:08:11;6.27;;;5.00;;
7707;SDS011;3896;48.758;8.888;2024-03-22T04:10:37;6.40;;;5.30;;
7707;SDS011;3896;48.758;8.888;2024-03-22T04:13:02;8.53;;;5.43;;
7707;SDS011;3896;48.758;8.888;2024-03-22T04:15:28;5.07;;;3.90;;
7707;SDS011;3896;48.758;8.888;2024-03-22T04:17:55;7.00;;;5.20;;
7707;SDS011;3896;48.758;8.888;2024-03-22T04:20:21;6.73;;;4.77;;
7707;SDS011;3896;48.758;8.888;2024-03-22T04:22:47;5.77;;;4.50;;
7707;SDS011;3896;48.758;8.888;2024-03-22T04:25:14;6.30;;;4.83;;
7707;SDS011;3896;48.758;8.888;2024-03-22T04:27:40;6.80;;;4.50;;
7707;SDS011;3896;48.758;8.888;2024-03-22T04:30:06;6.50;;;4.77;;
7707;SDS011;3896;48.758;8.888;2024-03-22T04:32:32;6.30;;;4.60;;
7707;SDS011;3896;48.758;8.888;2024-03-22T04:34:57;8.97;;;5.60;;
7707;SDS011;3896;48.758;8.888;2024-03-22T04:37:23;6.10;;;4.73;;
7707;SDS011;3896;48.758;8.888;2024-03-22T04:39:48;7.53;;;5.30;;
7707;SDS011;3896;48.758;8.888;2024-03-22T04:42:14;5.33;;;4.30;;
7707;SDS011;3896;48.758;8.888;2024-03-22T04:44:40;5.57;;;4.97;;
7707;SDS011;3896;48.758;8.888;2024-03-22T04:47:06;5.93;;;4.80;;
7707;SDS011;3896;48.758;8.888;2024-03-22T04:49:32;5.80;;;4.90;;
7707;SDS011;3896;48.758;8.888;2024-03-22T04:51:57;5.83;;;4.60;;
7707;SDS011;3896;48.758;8.888;2024-03-22T04:54:23;7.03;;;5.10;;
7707;SDS011;3896;48.758;8.888;2024-03-22T04:56:48;6.10;;;5.50;;
7707;SDS011;3896;48.758;8.888;2024-03-22T04:59:14;7.27;;;6.17;;
7707;SDS011;3896;48.758;8.888;2024-03-22T05:01:40;10.63;;;7.23;;
7707;SDS011;3896;48.758;8.888;2024-03-22T05:04:05;9.23;;;6.83;;
7707;SDS011;3896;48.758;8.888;2024-03-22T05:06:31;10.37;;;6.87;;
7707;SDS011;3896;48.758;8.888;2024-03-22T05:08:56;10.73;;;6.53;;
7707;SDS011;3896;48.758;8.888;2024-03-22T05:11:22;7.77;;;6.03;;
7707;SDS011;3896;48.758;8.888;2024-03-22T05:13:50;10.20;;;6.33;;
7707;SDS011;3896;48.758;8.888;2024-03-22T05:16:15;8.73;;;5.30;;
7707;SDS011;3896;48.758;8.888;2024-03-22T05:18:41;5.60;;;4.63;;
7707;SDS011;3896;48.758;8.888;2024-03-22T05:21:07;6.47;;;5.30;;
7707;SDS011;3896;48.758;8.888;2024-03-22T05:23:32;5.97;;;4.37;;
7707;SDS011;3896;48.758;8.888;2024-03-22T05:25:58;7.37;;;4.83;;
7707;SDS011;3896;48.758;8.888;2024-03-22T05:28:24;6.53;;;4.47;;
7707;SDS011;3896;48.758;8.888;2024-03-22T05:30:50;8.03;;;4.17;;
7707;SDS011;3896;48.758;8.888;2024-03-22T05:33:16;6.20;;;4.80;;
7707;SDS011;3896;48.758;8.888;2024-03-22T05:35:41;6.30;;;4.83;;
7707;SDS011;3896;48.758;8.888;2024-03-22T05:38:06;4.20;;;3.77;;
7707;SDS011;3896;48.758;8.888;2024-03-22T05:40:32;5.70;;;4.00;;
7707;SDS011;3896;48.758;8.888;2024-03-22T05:43:00;6.70;;;4.00;;
7707;SDS011;3896;48.758;8.888;2024-03-22T05:45:26;4.50;;;3.77;;
7707;SDS011;3896;48.758;8.888;2024-03-22T05:47:51;5.33;;;3.73;;
7707;SDS011;3896;48.758;8.888;2024-03-22T05:50:17;4.03;;;3.50;;
7707;SDS011;3896;48.758;8.888;2024-03-22T05:52:42;4.13;;;3.57;;
7707;SDS011;3896;48.758;8.888;2024-03-22T05:55:08;4.43;;;3.63;;
7707;SDS011;3896;48.758;8.888;2024-03-22T05:57:34;4.73;;;3.40;;
7707;SDS011;3896;48.758;8.888;2024-03-22T05:59:59;3.47;;;3.17;;
7707;SDS011;3896;48.758;8.888;2024-03-22T06:02:25;5.20;;;3.30;;
7707;SDS011;3896;48.758;8.888;2024-03-22T06:04:50;6.57;;;3.80;;
7707;SDS011;3896;48.758;8.888;2024-03-22T06:07:16;7.37;;;3.40;;
7707;SDS011;3896;48.758;8.888;2024-03-22T06:09:42;4.20;;;3.20;;
7707;SDS011;3896;48.758;8.888;2024-03-22T06:12:13;4.97;;;3.93;;
7707;SDS011;3896;48.758;8.888;2024-03-22T06:14:42;3.67;;;3.23;;
7707;SDS011;3896;48.758;8.888;2024-03-22T06:17:09;3.87;;;3.07;;
7707;SDS011;3896;48.758;8.888;2024-03-22T06:19:35;9.57;;;4.27;;
7707;SDS011;3896;48.758;8.888;2024-03-22T06:22:01;4.73;;;3.73;;
7707;SDS011;3896;48.758;8.888;2024-03-22T06:24:27;6.07;;;3.47;;
7707;SDS011;3896;48.758;8.888;2024-03-22T06:26:53;5.90;;;4.43;;
7707;SDS011;3896;48.758;8.888;2024-03-22T06:29:19;6.03;;;3.40;;
7707;SDS011;3896;48.758;8.888;2024-03-22T06:31:45;6.00;;;4.53;;
7707;SDS011;3896;48.758;8.888;2024-03-22T06:34:10;6.90;;;5.10;;
7707;SDS011;3896;48.758;8.888;2024-03-22T06:36:36;9.00;;;6.37;;
7707;SDS011;3896;48.758;8.888;2024-03-22T06:39:02;10.83;;;6.20;;
7707;SDS011;3896;48.758;8.888;2024-03-22T06:41:31;10.10;;;6.30;;
7707;SDS011;3896;48.758;8.888;2024-03-22T06:43:57;10.30;;;6.60;;
7707;SDS011;3896;48.758;8.888;2024-03-22T06:46:22;8.40;;;6.37;;
7707;SDS011;3896;48.758;8.888;2024-03-22T06:48:48;9.23;;;7.00;;
7707;SDS011;3896;48.758;8.888;2024-03-22T06:51:13;8.50;;;6.60;;
7707;SDS011;3896;48.758;8.888;2024-03-22T06:53:39;7.67;;;6.07;;
7707;SDS011;3896;48.758;8.888;2024-03-22T06:56:05;10.47;;;6.40;;
7707;SDS011;3896;48.758;8.888;2024-03-22T06:58:33;8.90;;;6.97;;
7707;SDS011;3896;48.758;8.888;2024-03-22T07:01:00;10.90;;;6.57;;
7707;SDS011;3896;48.758;8.888;2024-03-22T07:03:26;9.83;;;6.93;;
7707;SDS011;3896;48.758;8.888;2024-03-22T07:05:51;8.87;;;6.50;;
7707;SDS011;3896;48.758;8.888;2024-03-22T07:08:17;9.00;;;6.53;;
7707;SDS011;3896;48.758;8.888;2024-03-22T07:10:43;11.60;;;6.60;;
7707;SDS011;3896;48.758;8.888;2024-03-22T07:13:10;8.63;;;6.20;;
7707;SDS011;3896;48.758;8.888;2024-03-22T07:15:35;7.83;;;5.97;;
7707;SDS011;3896;48.758;8.888;2024-03-22T07:18:01;7.43;;;5.87;;
7707;SDS011;3896;48.758;8.888;2024-03-22T07:20:28;8.67;;;6.00;;
7707;SDS011;3896;48.758;8.888;2024-03-22T07:22:53;7.00;;;5.83;;
7707;SDS011;3896;48.758;8.888;2024-03-22T07:25:19;10.10;;;6.37;;
7707;SDS011;3896;48.758;8.888;2024-03-22T07:27:45;6.97;;;5.20;;
7707;SDS011;3896;48.758;8.888;2024-03-22T07:30:12;7.83;;;5.70;;
7707;SDS011;3896;48.758;8.888;2024-03-22T07:32:38;8.77;;;5.83;;
7707;SDS011;3896;48.758;8.888;2024-03-22T07:35:04;7.23;;;5.07;;
7707;SDS011;3896;48.758;8.888;2024-03-22T07:37:29;11.20;;;6.60;;
7707;SDS011;3896;48.758;8.888;2024-03-22T07:39:55;12.40;;;7.83;;
7707;SDS011;3896;48.758;8.888;2024-03-22T07:42:20;8.57;;;7.13;;
7707;SDS011;3896;48.758;8.888;2024-03-22T07:44:46;12.17;;;7.70;;
7707;SDS011;3896;48.758;8.888;2024-03-22T07:47:13;9.30;;;6.97;;
7707;SDS011;3896;48.758;8.888;2024-03-22T07:49:39;10.17;;;7.47;;
7707;SDS011;3896;48.758;8.888;2024-03-22T07:52:04;8.27;;;6.53;;
7707;SDS011;3896;48.758;8.888;2024-03-22T07:54:30;9.00;;;6.30;;
7707;SDS011;3896;48.758;8.888;2024-03-22T07:56:56;11.63;;;6.80;;
7707;SDS011;3896;48.758;8.888;2024-03-22T07:59:22;8.97;;;6.23;;
7707;SDS011;3896;48.758;8.888;2024-03-22T08:01:48;9.30;;;6.07;;
7707;SDS011;3896;48.758;8.888;2024-03-22T08:04:13;10.50;;;6.53;;
7707;SDS011;3896;48.758;8.888;2024-03-22T08:06:39;11.77;;;6.87;;
7707;SDS011;3896;48.758;8.888;2024-03-22T08:09:05;12.73;;;5.67;;
7707;SDS011;3896;48.758;8.888;2024-03-22T08:11:30;5.17;;;4.67;;
7707;SDS011;3896;48.758;8.888;2024-03-22T08:13:56;8.70;;;5.47;;
7707;SDS011;3896;48.758;8.888;2024-03-22T08:16:27;7.43;;;5.63;;
7707;SDS011;3896;48.758;8.888;2024-03-22T08:18:53;7.83;;;5.50;;
7707;SDS011;3896;48.758;8.888;2024-03-22T08:21:18;8.73;;;5.50;;
7707;SDS011;3896;48.758;8.888;2024-03-22T08:23:44;9.67;;;5.67;;
7707;SDS011;3896;48.758;8.888;2024-03-22T08:26:10;6.77;;;5.20;;
7707;SDS011;3896;48.758;8.888;2024-03-22T08:28:35;6.67;;;5.10;;
7707;SDS011;3896;48.758;8.888;2024-03-22T08:31:04;6.13;;;4.87;;
7707;SDS011;3896;48.758;8.888;2024-03-22T08:33:30;7.87;;;5.47;;
7707;SDS011;3896;48.758;8.888;2024-03-22T08:35:55;6.33;;;4.63;;
7707;SDS011;3896;48.758;8.888;2024-03-22T08:38:21;8.20;;;5.27;;
7707;SDS011;3896;48.758;8.888;2024-03-22T08:40:47;8.80;;;5.80;;
7707;SDS011;3896;48.758;8.888;2024-03-22T08:43:13;5.97;;;4.43;;
7707;SDS011;3896;48.758;8.888;2024-03-22T08:45:38;7.30;;;4.90;;
7707;SDS011;3896;48.758;8.888;2024-03-22T08:48:04;10.67;;;5.83;;
7707;SDS011;3896;48.758;8.888;2024-03-22T08:50:30;10.93;;;6.07;;
7707;SDS011;3896;48.758;8.888;2024-03-22T08:52:55;12.80;;;5.33;;
7707;SDS011;3896;48.758;8.888;2024-03-22T08:55:21;6.53;;;4.93;;
7707;SDS011;3896;48.758;8.888;2024-03-22T08:57:47;7.90;;;4.90;;
7707;SDS011;3896;48.758;8.888;2024-03-22T09:00:12;7.47;;;4.80;;
7707;SDS011;3896;48.758;8.888;2024-03-22T09:02:38;6.53;;;4.70;;
7707;SDS011;3896;48.758;8.888;2024-03-22T09:05:04;7.00;;;5.10;;
7707;SDS011;3896;48.758;8.888;2024-03-22T09:07:31;6.13;;;4.30;;
7707;SDS011;3896;48.758;8.888;2024-03-22T09:09:56;5.43;;;4.57;;
7707;SDS011;3896;48.758;8.888;2024-03-22T09:12:22;5.83;;;4.67;;
7707;SDS011;3896;48.758;8.888;2024-03-22T09:14:47;6.03;;;4.30;;
7707;SDS011;3896;48.758;8.888;2024-03-22T09:17:13;7.67;;;4.53;;
7707;SDS011;3896;48.758;8.888;2024-03-22T09:19:39;5.73;;;4.17;;
7707;SDS011;3896;48.758;8.888;2024-03-22T09:22:04;5.77;;;3.73;;
7707;SDS011;3896;48.758;8.888;2024-03-22T09:24:30;4.23;;;3.57;;
7707;SDS011;3896;48.758;8.888;2024-03-22T09:26:56;7.00;;;4.37;;
7707;SDS011;3896;48.758;8.888;2024-03-22T09:29:22;10.73;;;4.33;;
7707;SDS011;3896;48.758;8.888;2024-03-22T09:31:48;6.57;;;3.73;;
7707;SDS011;3896;48.758;8.888;2024-03-22T09:34:15;6.80;;;3.90;;
7707;SDS011;3896;48.758;8.888;2024-03-22T09:36:41;5.30;;;3.80;;
7707;SDS011;3896;48.758;8.888;2024-03-22T09:39:07;3.67;;;3.10;;
7707;SDS011;3896;48.758;8.888;2024-03-22T09:41:33;5.43;;;3.60;;
7707;SDS011;3896;48.758;8.888;2024-03-22T09:44:07;5.47;;;4.37;;
7707;SDS011;3896;48.758;8.888;2024-03-22T09:46:36;5.80;;;4.57;;
7707;SDS011;3896;48.758;8.888;2024-03-22T09:49:03;4.20;;;3.80;;
7707;SDS011;3896;48.758;8.888;2024-03-22T09:51:29;6.20;;;4.43;;
7707;SDS011;3896;48.758;8.888;2024-03-22T09:53:56;5.23;;;3.10;;
7707;SDS011;3896;48.758;8.888;2024-03-22T09:56:22;4.73;;;3.13;;
7707;SDS011;3896;48.758;8.888;2024-03-22T09:58:50;4.63;;;2.93;;
7707;SDS011;3896;48.758;8.888;2024-03-22T10:01:16;5.00;;;3.00;;
7707;SDS011;3896;48.758;8.888;2024-03-22T10:03:42;6.67;;;3.27;;
7707;SDS011;3896;48.758;8.888;2024-03-22T10:06:09;4.97;;;3.00;;
7707;SDS011;3896;48.758;8.888;2024-03-22T10:08:35;3.10;;;2.80;;
7707;SDS011;3896;48.758;8.888;2024-03-22T10:11:03;3.77;;;2.67;;
7707;SDS011;3896;48.758;8.888;2024-03-22T10:13:29;5.93;;;3.50;;
7707;SDS011;3896;48.758;8.888;2024-03-22T10:15:55;6.30;;;3.30;;
7707;SDS011;3896;48.758;8.888;2024-03-22T10:18:21;3.17;;;2.90;;
7707;SDS011;3896;48.758;8.888;2024-03-22T10:20:53;3.33;;;2.70;;
7707;SDS011;3896;48.758;8.888;2024-03-22T10:23:25;4.77;;;3.07;;
7707;SDS011;3896;48.758;8.888;2024-03-22T10:25:51;4.57;;;2.57;;
7707;SDS011;3896;48.758;8.888;2024-03-22T10:28:17;5.37;;;2.50;;
7707;SDS011;3896;48.758;8.888;2024-03-22T10:30:43;4.20;;;2.77;;
7707;SDS011;3896;48.758;8.888;2024-03-22T10:33:13;4.20;;;3.10;;
7707;SDS011;3896;48.758;8.888;2024-03-22T10:35:40;2.60;;;2.40;;
7707;SDS011;3896;48.758;8.888;2024-03-22T10:38:07;4.03;;;2.63;;
7707;SDS011;3896;48.758;8.888;2024-03-22T10:40:36;2.47;;;2.23;;
7707;SDS011;3896;48.758;8.888;2024-03-22T10:43:02;2.83;;;2.63;;
7707;SDS011;3896;48.758;8.888;2024-03-22T10:45:28;2.57;;;2.37;;
7707;SDS011;3896;48.758;8.888;2024-03-22T10:47:55;3.83;;;2.70;;
7707;SDS011;3896;48.758;8.888;2024-03-22T10:50:21;2.77;;;2.47;;
7707;SDS011;3896;48.758;8.888;2024-03-22T10:52:51;3.30;;;2.37;;
7707;SDS011;3896;48.758;8.888;2024-03-22T10:55:22;6.60;;;2.10;;
7707;SDS011;3896;48.758;8.888;2024-03-22T10:57:55;2.40;;;2.20;;
7707;SDS011;3896;48.758;8.888;2024-03-22T11:00:30;2.63;;;2.40;;
7707;SDS011;3896;48.758;8.888;2024-03-22T11:02:57;8.93;;;4.30;;
7707;SDS011;3896;48.758;8.888;2024-03-22T11:05:23;4.97;;;2.40;;
7707;SDS011;3896;48.758;8.888;2024-03-22T11:08:00;2.73;;;2.23;;
7707;SDS011;3896;48.758;8.888;2024-03-22T11:10:29;2.60;;;2.40;;
7707;SDS011;3896;48.758;8.888;2024-03-22T11:12:55;3.60;;;2.10;;
7707;SDS011;3896;48.758;8.888;2024-03-22T11:15:25;2.53;;;2.00;;
7707;SDS011;3896;48.758;8.888;2024-03-22T11:17:50;4.33;;;2.50;;
7707;SDS011;3896;48.758;8.888;2024-03-22T11:20:16;3.90;;;1.83;;
7707;SDS011;3896;48.758;8.888;2024-03-22T11:22:41;3.60;;;2.20;;
7707;SDS011;3896;48.758;8.888;2024-03-22T11:25:07;2.40;;;2.20;;
7707;SDS011;3896;48.758;8.888;2024-03-22T11:27:33;1.83;;;1.63;;
7707;SDS011;3896;48.758;8.888;2024-03-22T11:29:59;2.20;;;1.80;;
7707;SDS011;3896;48.758;8.888;2024-03-22T11:32:24;2.03;;;1.90;;
7707;SDS011;3896;48.758;8.888;2024-03-22T11:34:51;2.77;;;2.20;;
7707;SDS011;3896;48.758;8.888;2024-03-22T11:37:17;2.87;;;1.73;;
7707;SDS011;3896;48.758;8.888;2024-03-22T11:39:42;1.97;;;1.60;;
7707;SDS011;3896;48.758;8.888;2024-03-22T11:42:08;2.07;;;1.90;;
7707;SDS011;3896;48.758;8.888;2024-03-22T11:44:35;2.70;;;1.90;;
7707;SDS011;3896;48.758;8.888;2024-03-22T11:47:03;1.90;;;1.73;;
7707;SDS011;3896;48.758;8.888;2024-03-22T11:49:29;1.83;;;1.70;;
7707;SDS011;3896;48.758;8.888;2024-03-22T11:51:56;3.53;;;1.60;;
7707;SDS011;3896;48.758;8.888;2024-03-22T11:54:22;1.80;;;1.30;;
7707;SDS011;3896;48.758;8.888;2024-03-22T11:56:51;1.80;;;1.70;;
7707;SDS011;3896;48.758;8.888;2024-03-22T11:59:19;1.83;;;1.60;;
7707;SDS011;3896;48.758;8.888;2024-03-22T12:01:46;2.60;;;1.60;;
7707;SDS011;3896;48.758;8.888;2024-03-22T12:04:12;3.63;;;1.77;;
7707;SDS011;3896;48.758;8.888;2024-03-22T12:06:43;2.03;;;1.60;;
7707;SDS011;3896;48.758;8.888;2024-03-22T12:09:09;3.93;;;1.73;;
7707;SDS011;3896;48.758;8.888;2024-03-22T12:11:39;1.70;;;1.60;;
7707;SDS011;3896;48.758;8.888;2024-03-22T12:14:05;2.80;;;1.50;;
7707;SDS011;3896;48.758;8.888;2024-03-22T12:16:31;1.60;;;1.50;;
7707;SDS011;3896;48.758;8.888;2024-03-22T12:18:57;1.90;;;1.30;;
7707;SDS011;3896;48.758;8.888;2024-03-22T12:21:23;2.63;;;1.73;;
7707;SDS011;3896;48.758;8.888;2024-03-22T12:23:49;1.70;;;1.60;;
7707;SDS011;3896;48.758;8.888;2024-03-22T12:26:15;2.23;;;1.73;;
7707;SDS011;3896;48.758;8.888;2024-03-22T12:28:40;1.70;;;1.50;;
7707;SDS011;3896;48.758;8.888;2024-03-22T12:31:07;2.67;;;1.70;;
7707;SDS011;3896;48.758;8.888;2024-03-22T12:33:34;1.70;;;1.50;;
7707;SDS011;3896;48.758;8.888;2024-03-22T12:36:00;2.60;;;1.40;;
7707;SDS011;3896;48.758;8.888;2024-03-22T12:38:25;1.97;;;1.77;;
7707;SDS011;3896;48.758;8.888;2024-03-22T12:40:51;2.20;;;1.80;;
7707;SDS011;3896;48.758;8.888;2024-03-22T12:43:16;2.50;;;1.90;;
7707;SDS011;3896;48.758;8.888;2024-03-22T12:45:42;2.33;;;1.57;;
7707;SDS011;3896;48.758;8.888;2024-03-22T12:48:08;2.53;;;1.87;;
7707;SDS011;3896;48.758;8.888;2024-03-22T12:50:34;2.50;;;2.03;;
7707;SDS011;3896;48.758;8.888;2024-03-22T12:53:00;4.33;;;2.37;;
7707;SDS011;3896;48.758;8.888;2024-03-22T12:55:26;1.63;;;1.53;;
7707;SDS011;3896;48.758;8.888;2024-03-22T12:57:53;3.17;;;2.23;;
7707;SDS011;3896;48.758;8.888;2024-03-22T13:00:19;4.97;;;1.67;;
7707;SDS011;3896;48.758;8.888;2024-03-22T13:02:45;3.17;;;1.80;;
7707;SDS011;3896;48.758;8.888;2024-03-22T13:05:11;1.60;;;1.50;;
7707;SDS011;3896;48.758;8.888;2024-03-22T13:07:38;2.13;;;1.63;;
7707;SDS011;3896;48.758;8.888;2024-03-22T13:10:05;2.23;;;1.40;;
7707;SDS011;3896;48.758;8.888;2024-03-22T13:12:31;3.03;;;1.80;;
7707;SDS011;3896;48.758;8.888;2024-03-22T13:15:00;1.60;;;1.50;;
7707;SDS011;3896;48.758;8.888;2024-03-22T13:17:27;1.70;;;1.60;;
7707;SDS011;3896;48.758;8.888;2024-03-22T13:19:52;1.70;;;1.60;;
7707;SDS011;3896;48.758;8.888;2024-03-22T13:22:18;3.20;;;1.70;;
7707;SDS011;3896;48.758;8.888;2024-03-22T13:24:44;2.20;;;1.60;;
7707;SDS011;3896;48.758;8.888;2024-03-22T13:27:10;3.33;;;1.50;;
7707;SDS011;3896;48.758;8.888;2024-03-22T13:29:37;2.00;;;1.53;;
7707;SDS011;3896;48.758;8.888;2024-03-22T13:32:03;2.07;;;1.40;;
7707;SDS011;3896;48.758;8.888;2024-03-22T13:34:29;1.70;;;1.60;;
7707;SDS011;3896;48.758;8.888;2024-03-22T13:36:55;1.97;;;1.30;;
7707;SDS011;3896;48.758;8.888;2024-03-22T13:39:20;3.63;;;1.50;;
7707;SDS011;3896;48.758;8.888;2024-03-22T13:41:47;3.23;;;1.30;;
7707;SDS011;3896;48.758;8.888;2024-03-22T13:44:12;1.27;;;1.17;;
7707;SDS011;3896;48.758;8.888;2024-03-22T13:46:38;1.40;;;1.30;;
7707;SDS011;3896;48.758;8.888;2024-03-22T13:49:12;1.67;;;1.40;;
7707;SDS011;3896;48.758;8.888;2024-03-22T13:51:42;1.10;;;1.10;;
7707;SDS011;3896;48.758;8.888;2024-03-22T13:54:08;1.10;;;1.00;;
7707;SDS011;3896;48.758;8.888;2024-03-22T13:56:35;1.57;;;1.47;;
7707;SDS011;3896;48.758;8.888;2024-03-22T13:59:00;1.30;;;1.20;;
7707;SDS011;3896;48.758;8.888;2024-03-22T14:01:27;1.07;;;1.00;;
7707;SDS011;3896;48.758;8.888;2024-03-22T14:03:52;1.27;;;1.17;;
7707;SDS011;3896;48.758;8.888;2024-03-22T14:06:18;0.67;;;0.67;;
7707;SDS011;3896;48.758;8.888;2024-03-22T14:08:43;4.07;;;1.00;;
7707;SDS011;3896;48.758;8.888;2024-03-22T14:11:09;0.87;;;0.87;;
7707;SDS011;3896;48.758;8.888;2024-03-22T14:13:35;0.80;;;0.80;;
7707;SDS011;3896;48.758;8.888;2024-03-22T14:16:00;1.23;;;1.10;;
7707;SDS011;3896;48.758;8.888;2024-03-22T14:18:27;0.87;;;0.87;;
7707;SDS011;3896;48.758;8.888;2024-03-22T14:20:52;1.30;;;1.03;;
7707;SDS011;3896;48.758;8.888;2024-03-22T14:23:18;1.67;;;1.10;;
7707;SDS011;3896;48.758;8.888;2024-03-22T14:25:44;0.67;;;0.67;;
7707;SDS011;3896;48.758;8.888;2024-03-22T14:28:11;0.90;;;0.90;;
7707;SDS011;3896;48.758;8.888;2024-03-22T14:30:37;1.13;;;0.83;;
7707;SDS011;3896;48.758;8.888;2024-03-22T14:33:03;1.38;;;1.00;;
7707;SDS011;3896;48.758;8.888;2024-03-22T14:35:29;2.83;;;0.93;;
7707;SDS011;3896;48.758;8.888;2024-03-22T14:37:55;1.83;;;1.10;;
7707;SDS011;3896;48.758;8.888;2024-03-22T14:40:22;1.00;;;0.90;;
7707;SDS011;3896;48.758;8.888;2024-03-22T14:42:47;2.17;;;1.03;;
7707;SDS011;3896;48.758;8.888;2024-03-22T14:45:16;1.40;;;0.90;;
7707;SDS011;3896;48.758;8.888;2024-03-22T14:47:46;0.90;;;0.80;;
7707;SDS011;3896;48.758;8.888;2024-03-22T14:50:11;0.83;;;0.80;;
7707;SDS011;3896;48.758;8.888;2024-03-22T14:52:37;4.30;;;1.17;;
7707;SDS011;3896;48.758;8.888;2024-03-22T14:55:04;1.40;;;0.97;;
7707;SDS011;3896;48.758;8.888;2024-03-22T14:57:30;1.50;;;1.00;;
7707;SDS011;3896;48.758;8.888;2024-03-22T14:59:55;1.80;;;1.03;;
7707;SDS011;3896;48.758;8.888;2024-03-22T15:02:21;2.63;;;1.23;;
7707;SDS011;3896;48.758;8.888;2024-03-22T15:04:49;1.40;;;1.30;;
7707;SDS011;3896;48.758;8.888;2024-03-22T15:07:14;1.50;;;1.40;;
7707;SDS011;3896;48.758;8.888;2024-03-22T15:09:41;1.43;;;1.20;;
7707;SDS011;3896;48.758;8.888;2024-03-22T15:12:07;1.00;;;0.90;;
7707;SDS011;3896;48.758;8.888;2024-03-22T15:14:34;1.40;;;1.10;;
7707;SDS011;3896;48.758;8.888;2024-03-22T15:17:00;1.13;;;1.03;;
7707;SDS011;3896;48.758;8.888;2024-03-22T15:19:25;1.97;;;0.90;;
7707;SDS011;3896;48.758;8.888;2024-03-22T15:21:51;0.90;;;0.90;;